Hauptseite
METAR-TAF:

METAR-TAF

Flughäfen :

Oslo, Norwegen

Flughafen Oslo-Gardermoen

Breite: 60-12N, Länge: 011-05E, Höhe: 208 m

Beobachtung

Neuester Wetterbericht von vor 21 Minuten, um 11:50 UTC
Wind 2 kt aus unterschiedlichen Richtungen
Temperatur 16°C
Luftfeuchtigkeit 45%
Luftdruck 1007 hPa
Sichtweite 10 km oder mehr
keine Wolken unter 1500 m und keine Kumulonimbus oder Gewitterwolken

METAR: ENGM 221150Z VRB02KT CAVOK 16/04 Q1007 NOSIG

Zeit: 14:11 (12:11 UTC)

Prognose

Gültige Prognose vom 22 um 12 UTC bis 23 um 12 UTC
Wind 8 kt aus Süd
Sichtweite 10 km oder mehr
Leicht bewölkt in der Höhe von 3000 ft
Durchbrochene Bewölkung in der Höhe von 6000 ft
Wahrscheinlichkeit 30%
vom 23 um 03 UTC bis 23 um 06 UTC
Durchbrochene Bewölkung in der Höhe von 800 ft
Zeitweise
vom 23 um 10 UTC bis 23 um 12 UTC
Regen

TAF: ENGM 2212/2312 17008KT 9999 FEW030 BKN060 PROB30 2303/2306 BKN008 TEMPO 2310/2312 RA

Wetterbeobachtungen und Prognosen von mehr als 4000 Flughäfen (METAR und TAF Bericht).

Die verfügbaren Stationen werden durch gelbe und rote Markierungen auf der Karte dargestellt.

Führen Sie die Maus auf sie, um den Namen der Station zu sehen.

Darauf klicken, um die Beobachtung von Wetterbeobachtungen und Prognosen zu sehen.

Um die Karte zu ändern : klicken Sie auf den grünen Tasten mit einem schwarzen Kreuz Zum Vergrößern, auf den grünen Button mit einem Gedankenstrich zu verkleinern, oder auf die grünen Pfeile für benachbarte Karten.


METAR-TAF: